2026/08/19

Sensor Date Temp./Hum.
h3-hermonville 19-08-2026 - 23:59 19.7°C / 80%
h4-hermonville 19-08-2026 - 23:58 20.8°C / 74%
h2-hermonville 19-08-2026 - 23:53 20°C / 78.5%
h1-hermonville 19-08-2026 - 23:53 17.9°C / 90.5%
h3-hermonville 19-08-2026 - 23:49 19.6°C / 79.5%
h2-hermonville 19-08-2026 - 23:43 20.1°C / 79.5%
h1-hermonville 19-08-2026 - 23:43 18°C / 90.5%
h3-hermonville 19-08-2026 - 23:39 19.9°C / 79.5%
h4-hermonville 19-08-2026 - 23:38 20.9°C / 74.5%
h2-hermonville 19-08-2026 - 23:33 20.4°C / 79%
h1-hermonville 19-08-2026 - 23:33 18°C / 92%
h3-hermonville 19-08-2026 - 23:29 19.8°C / 80.5%
h4-hermonville 19-08-2026 - 23:28 20.9°C / 74.5%
h2-hermonville 19-08-2026 - 23:23 20°C / 80%
h1-hermonville 19-08-2026 - 23:23 18.3°C / 95%
h3-hermonville 19-08-2026 - 23:19 19.9°C / 80.5%
h4-hermonville 19-08-2026 - 23:18 21°C / 74.5%
h2-hermonville 19-08-2026 - 23:13 20.5°C / 79.5%
h1-hermonville 19-08-2026 - 23:13 18.2°C / 96%
h3-hermonville 19-08-2026 - 23:09 19.8°C / 81%
h4-hermonville 19-08-2026 - 23:08 21.1°C / 74.5%
h1-hermonville 19-08-2026 - 23:03 18.5°C / 96.5%
h3-hermonville 19-08-2026 - 22:59 19.6°C / 81.5%
h4-hermonville 19-08-2026 - 22:58 20.9°C / 74.5%
h1-hermonville 19-08-2026 - 22:53 18.3°C / 97.5%
h3-hermonville 19-08-2026 - 22:49 19.6°C / 81.5%
h4-hermonville 19-08-2026 - 22:48 21.2°C / 73.5%
h2-hermonville 19-08-2026 - 22:43 21.4°C / 76.5%
h1-hermonville 19-08-2026 - 22:43 18.2°C / 97.5%
h3-hermonville 19-08-2026 - 22:39 19.8°C / 81%
h2-hermonville 19-08-2026 - 22:33 21.4°C / 76%
h1-hermonville 19-08-2026 - 22:33 18.4°C / 97.5%
h3-hermonville 19-08-2026 - 22:29 20.3°C / 79%
h4-hermonville 19-08-2026 - 22:28 21.4°C / 74%
h2-hermonville 19-08-2026 - 22:23 21.2°C / 78.5%
h1-hermonville 19-08-2026 - 22:23 18.7°C / 97.5%
h3-hermonville 19-08-2026 - 22:19 20.3°C / 79.5%
h4-hermonville 19-08-2026 - 22:18 21.6°C / 74%
h2-hermonville 19-08-2026 - 22:13 21.1°C / 78.5%
h1-hermonville 19-08-2026 - 22:13 18.8°C / 97.5%
h3-hermonville 19-08-2026 - 22:09 20.7°C / 78.5%
h4-hermonville 19-08-2026 - 22:08 21.4°C / 75%
h2-hermonville 19-08-2026 - 22:03 20.8°C / 79%
h1-hermonville 19-08-2026 - 22:03 19.5°C / 97.5%
h3-hermonville 19-08-2026 - 21:59 20.7°C / 79.5%
h4-hermonville 19-08-2026 - 21:58 21.4°C / 76%
h2-hermonville 19-08-2026 - 21:53 21.5°C / 76.5%
h1-hermonville 19-08-2026 - 21:53 19°C / 98%
h3-hermonville 19-08-2026 - 21:49 20.2°C / 81.5%
h4-hermonville 19-08-2026 - 21:48 21.5°C / 75.5%
h1-hermonville 19-08-2026 - 21:43 18.9°C / 97%
h3-hermonville 19-08-2026 - 21:39 20.1°C / 82.5%
h4-hermonville 19-08-2026 - 21:38 21.6°C / 76%
h2-hermonville 19-08-2026 - 21:33 22.8°C / 75.5%
h1-hermonville 19-08-2026 - 21:33 19.3°C / 96.5%
h3-hermonville 19-08-2026 - 21:29 20.4°C / 83%
h4-hermonville 19-08-2026 - 21:28 21.8°C / 77%
h1-hermonville 19-08-2026 - 21:23 19.6°C / 96.5%
h3-hermonville 19-08-2026 - 21:19 20.6°C / 83%
h4-hermonville 19-08-2026 - 21:18 21.8°C / 77%
h2-hermonville 19-08-2026 - 21:13 21.9°C / 81%
h1-hermonville 19-08-2026 - 21:13 20°C / 96.5%
h3-hermonville 19-08-2026 - 21:09 21°C / 82%
h4-hermonville 19-08-2026 - 21:08 21.8°C / 78%
h1-hermonville 19-08-2026 - 21:03 20.7°C / 96.5%
h3-hermonville 19-08-2026 - 20:59 21.1°C / 82.5%
h4-hermonville 19-08-2026 - 20:58 21.9°C / 77.5%
h2-hermonville 19-08-2026 - 20:53 21.3°C / 82.5%
h1-hermonville 19-08-2026 - 20:53 21°C / 96.5%
h3-hermonville 19-08-2026 - 20:49 21.2°C / 82.5%
h4-hermonville 19-08-2026 - 20:48 22.2°C / 77.5%
h2-hermonville 19-08-2026 - 20:43 21.4°C / 82.5%
h1-hermonville 19-08-2026 - 20:43 20.8°C / 97.5%
h3-hermonville 19-08-2026 - 20:39 21°C / 84%
h4-hermonville 19-08-2026 - 20:38 22.2°C / 77.5%
h2-hermonville 19-08-2026 - 20:33 21.4°C / 84.5%
h1-hermonville 19-08-2026 - 20:33 20.9°C / 97%
h3-hermonville 19-08-2026 - 20:29 20.7°C / 87%
h4-hermonville 19-08-2026 - 20:28 22.3°C / 78.5%
h2-hermonville 19-08-2026 - 20:23 20.8°C / 88%
h1-hermonville 19-08-2026 - 20:23 21°C / 97%
h3-hermonville 19-08-2026 - 20:19 20.5°C / 88%
h4-hermonville 19-08-2026 - 20:18 22.4°C / 78%
h2-hermonville 19-08-2026 - 20:13 20.5°C / 88.5%
h1-hermonville 19-08-2026 - 20:13 20.9°C / 97%
h3-hermonville 19-08-2026 - 20:09 20.4°C / 88%
h4-hermonville 19-08-2026 - 20:08 22.5°C / 77.5%
h2-hermonville 19-08-2026 - 20:03 20.9°C / 87%
h1-hermonville 19-08-2026 - 20:03 20.8°C / 97%
h3-hermonville 19-08-2026 - 19:59 20.8°C / 85%
h4-hermonville 19-08-2026 - 19:58 22.7°C / 75.5%
h2-hermonville 19-08-2026 - 19:53 21.8°C / 80.5%
h1-hermonville 19-08-2026 - 19:53 20.7°C / 97.5%
h3-hermonville 19-08-2026 - 19:49 21.6°C / 81.5%
h4-hermonville 19-08-2026 - 19:48 22.9°C / 75%
h2-hermonville 19-08-2026 - 19:43 23.7°C / 74.5%
h1-hermonville 19-08-2026 - 19:43 20.2°C / 98%
h3-hermonville 19-08-2026 - 19:39 21.6°C / 81.5%
h4-hermonville 19-08-2026 - 19:38 23.3°C / 74.5%
h2-hermonville 19-08-2026 - 19:33 24.7°C / 72%
h1-hermonville 19-08-2026 - 19:33 19.9°C / 98%
h3-hermonville 19-08-2026 - 19:29 21.8°C / 82%
h4-hermonville 19-08-2026 - 19:28 23.4°C / 73.5%
h2-hermonville 19-08-2026 - 19:23 25.1°C / 69.5%
h1-hermonville 19-08-2026 - 19:23 19.7°C / 97%
h3-hermonville 19-08-2026 - 19:19 22.3°C / 79%
h4-hermonville 19-08-2026 - 19:18 23.8°C / 72%
h2-hermonville 19-08-2026 - 19:13 25.8°C / 67%
h1-hermonville 19-08-2026 - 19:13 19.8°C / 96.5%
h3-hermonville 19-08-2026 - 19:09 22.6°C / 77%
h4-hermonville 19-08-2026 - 19:08 24.5°C / 68.5%
h2-hermonville 19-08-2026 - 19:03 26.7°C / 62%
h1-hermonville 19-08-2026 - 19:03 20.4°C / 93%
h3-hermonville 19-08-2026 - 18:59 24.9°C / 65.5%
h4-hermonville 19-08-2026 - 18:58 26°C / 60%
h2-hermonville 19-08-2026 - 18:53 27.4°C / 53.5%
h1-hermonville 19-08-2026 - 18:53 25.1°C / 60.5%
h3-hermonville 19-08-2026 - 18:49 26.9°C / 54%
h4-hermonville 19-08-2026 - 18:48 26.9°C / 51.5%
h2-hermonville 19-08-2026 - 18:43 27.7°C / 48%
h1-hermonville 19-08-2026 - 18:43 27.2°C / 49%
h3-hermonville 19-08-2026 - 18:39 27.4°C / 48%
h4-hermonville 19-08-2026 - 18:38 27°C / 49%
h2-hermonville 19-08-2026 - 18:33 27.7°C / 48%
h1-hermonville 19-08-2026 - 18:33 27.2°C / 49%
h3-hermonville 19-08-2026 - 18:29 27.4°C / 48.5%
h4-hermonville 19-08-2026 - 18:28 27.1°C / 49%
h2-hermonville 19-08-2026 - 18:23 27.8°C / 48%
h1-hermonville 19-08-2026 - 18:23 27.4°C / 49%
h3-hermonville 19-08-2026 - 18:19 27.5°C / 48%
h4-hermonville 19-08-2026 - 18:18 27.1°C / 48.5%
h2-hermonville 19-08-2026 - 18:13 27.9°C / 47.5%
h1-hermonville 19-08-2026 - 18:13 27.6°C / 48.5%
h3-hermonville 19-08-2026 - 18:09 27.5°C / 47.5%
h4-hermonville 19-08-2026 - 18:08 27.3°C / 48%
h2-hermonville 19-08-2026 - 18:03 28.1°C / 46.5%
h1-hermonville 19-08-2026 - 18:03 27.7°C / 48%
h3-hermonville 19-08-2026 - 17:59 27.7°C / 47.5%
h4-hermonville 19-08-2026 - 17:58 27.4°C / 48%
h2-hermonville 19-08-2026 - 17:53 28.6°C / 45.5%
h1-hermonville 19-08-2026 - 17:53 27.8°C / 48%
h3-hermonville 19-08-2026 - 17:49 27.9°C / 47%
h2-hermonville 19-08-2026 - 17:43 29.3°C / 44.5%
h1-hermonville 19-08-2026 - 17:43 27.9°C / 47.5%
h3-hermonville 19-08-2026 - 17:39 27.8°C / 47.5%
h4-hermonville 19-08-2026 - 17:38 27.4°C / 48%
h2-hermonville 19-08-2026 - 17:33 28.5°C / 46%
h1-hermonville 19-08-2026 - 17:33 27.7°C / 48%
h3-hermonville 19-08-2026 - 17:29 27.7°C / 47.5%
h4-hermonville 19-08-2026 - 17:28 27.3°C / 48.5%
h2-hermonville 19-08-2026 - 17:23 28.3°C / 47%
h1-hermonville 19-08-2026 - 17:23 27.7°C / 48.5%
h3-hermonville 19-08-2026 - 17:19 27.4°C / 48.5%
h2-hermonville 19-08-2026 - 17:13 28°C / 48%
h1-hermonville 19-08-2026 - 17:13 27.6°C / 48.5%
h3-hermonville 19-08-2026 - 17:09 27.4°C / 49%
h4-hermonville 19-08-2026 - 17:08 27.2°C / 50%
h2-hermonville 19-08-2026 - 17:03 28.1°C / 48%
h1-hermonville 19-08-2026 - 17:03 27.3°C / 49.5%
h3-hermonville 19-08-2026 - 16:59 27.5°C / 49%
h4-hermonville 19-08-2026 - 16:58 27.2°C / 49.5%
h2-hermonville 19-08-2026 - 16:53 29.4°C / 45.5%
h1-hermonville 19-08-2026 - 16:53 27.7°C / 49%
h3-hermonville 19-08-2026 - 16:49 27.7°C / 48.5%
h4-hermonville 19-08-2026 - 16:48 27.2°C / 49%
h2-hermonville 19-08-2026 - 16:43 28.8°C / 46%
h1-hermonville 19-08-2026 - 16:43 27.6°C / 48.5%
h3-hermonville 19-08-2026 - 16:39 27.6°C / 48.5%
h4-hermonville 19-08-2026 - 16:38 27.2°C / 49%
h2-hermonville 19-08-2026 - 16:33 28.8°C / 46%
h1-hermonville 19-08-2026 - 16:33 27.8°C / 48.5%
h3-hermonville 19-08-2026 - 16:29 27.5°C / 49%
h4-hermonville 19-08-2026 - 16:28 27.4°C / 49.5%
h2-hermonville 19-08-2026 - 16:23 28.7°C / 48%
h3-hermonville 19-08-2026 - 16:19 28°C / 49.5%
h4-hermonville 19-08-2026 - 16:18 27.5°C / 50.5%
h1-hermonville 19-08-2026 - 16:13 28.1°C / 49%
h3-hermonville 19-08-2026 - 16:09 27.9°C / 48.5%
h4-hermonville 19-08-2026 - 16:08 27.4°C / 49%
h2-hermonville 19-08-2026 - 16:03 28.7°C / 46.5%
h1-hermonville 19-08-2026 - 16:03 28.2°C / 48%
h4-hermonville 19-08-2026 - 15:58 27.4°C / 49.5%
h2-hermonville 19-08-2026 - 15:53 28.8°C / 47.5%
h1-hermonville 19-08-2026 - 15:53 28.1°C / 49.5%
h3-hermonville 19-08-2026 - 15:49 27.9°C / 49.5%
h4-hermonville 19-08-2026 - 15:48 27.4°C / 50.5%
h2-hermonville 19-08-2026 - 15:43 28.8°C / 47%
h1-hermonville 19-08-2026 - 15:43 28.1°C / 49%
h3-hermonville 19-08-2026 - 15:39 28°C / 49.5%
h4-hermonville 19-08-2026 - 15:38 27.2°C / 51.5%
h2-hermonville 19-08-2026 - 15:33 28.2°C / 49%
h1-hermonville 19-08-2026 - 15:33 27.7°C / 50.5%
h3-hermonville 19-08-2026 - 15:29 27.7°C / 49%
h4-hermonville 19-08-2026 - 15:28 27.1°C / 51%
h2-hermonville 19-08-2026 - 15:23 28.2°C / 48.5%
h1-hermonville 19-08-2026 - 15:23 27.6°C / 50%
h3-hermonville 19-08-2026 - 15:19 27.9°C / 48.5%
h4-hermonville 19-08-2026 - 15:18 27°C / 50.5%
h2-hermonville 19-08-2026 - 15:13 28.5°C / 47.5%
h1-hermonville 19-08-2026 - 15:13 27.8°C / 49.5%
h3-hermonville 19-08-2026 - 15:09 27.9°C / 47.5%
h4-hermonville 19-08-2026 - 15:08 27°C / 50.5%
h2-hermonville 19-08-2026 - 15:03 28.3°C / 48%
h1-hermonville 19-08-2026 - 15:03 27.5°C / 50%
h3-hermonville 19-08-2026 - 14:59 27.7°C / 48.5%
h2-hermonville 19-08-2026 - 14:53 27.9°C / 51%
h1-hermonville 19-08-2026 - 14:53 27.3°C / 52.5%
h3-hermonville 19-08-2026 - 14:49 27.5°C / 52%
h4-hermonville 19-08-2026 - 14:48 26.7°C / 54%
h2-hermonville 19-08-2026 - 14:43 27.7°C / 53%
h1-hermonville 19-08-2026 - 14:43 27°C / 55%
h3-hermonville 19-08-2026 - 14:39 27.4°C / 54%
h4-hermonville 19-08-2026 - 14:38 26.4°C / 56.5%
h2-hermonville 19-08-2026 - 14:33 27.4°C / 54%
h1-hermonville 19-08-2026 - 14:33 26.8°C / 56%
h3-hermonville 19-08-2026 - 14:29 27°C / 55%
h2-hermonville 19-08-2026 - 14:23 27.2°C / 55%
h1-hermonville 19-08-2026 - 14:23 26.5°C / 57%
h3-hermonville 19-08-2026 - 08:19 19.7°C / 87.5%
h4-hermonville 19-08-2026 - 08:18 21.1°C / 79.5%
h2-hermonville 19-08-2026 - 08:13 19.9°C / 87.5%
h3-hermonville 19-08-2026 - 08:09 19.7°C / 88.5%
h4-hermonville 19-08-2026 - 08:08 21°C / 80%
h2-hermonville 19-08-2026 - 08:03 19.8°C / 87.5%
h1-hermonville 19-08-2026 - 08:03 20.7°C / 84%
h3-hermonville 19-08-2026 - 07:59 19.6°C / 88%
h4-hermonville 19-08-2026 - 07:58 21.1°C / 79.5%
h2-hermonville 19-08-2026 - 07:53 20.1°C / 87%
h1-hermonville 19-08-2026 - 07:53 20.8°C / 83%
h3-hermonville 19-08-2026 - 07:49 19.7°C / 88%
h4-hermonville 19-08-2026 - 07:48 21.2°C / 79.5%
h2-hermonville 19-08-2026 - 07:43 20.1°C / 87%
h1-hermonville 19-08-2026 - 07:43 20.8°C / 83%
h3-hermonville 19-08-2026 - 07:39 19.8°C / 88%
h4-hermonville 19-08-2026 - 07:38 21.3°C / 79.5%
h2-hermonville 19-08-2026 - 07:33 19.9°C / 87.5%
h1-hermonville 19-08-2026 - 07:33 20.7°C / 83.5%
h3-hermonville 19-08-2026 - 07:29 19.7°C / 87.5%
h4-hermonville 19-08-2026 - 07:28 21.2°C / 79.5%
h1-hermonville 19-08-2026 - 07:23 20.8°C / 83%
h3-hermonville 19-08-2026 - 07:19 19.8°C / 87%
h4-hermonville 19-08-2026 - 07:18 21.3°C / 78.5%
h2-hermonville 19-08-2026 - 07:13 20.1°C / 86.5%
h1-hermonville 19-08-2026 - 07:13 20.8°C / 82.5%
h3-hermonville 19-08-2026 - 07:09 19.8°C / 87%
h4-hermonville 19-08-2026 - 07:08 21.4°C / 78.5%
h2-hermonville 19-08-2026 - 07:03 20.1°C / 85.5%
h1-hermonville 19-08-2026 - 07:03 20.8°C / 82%
h3-hermonville 19-08-2026 - 06:59 19.8°C / 86.5%
h4-hermonville 19-08-2026 - 06:58 21.4°C / 78%
h2-hermonville 19-08-2026 - 06:53 20.2°C / 85.5%
h3-hermonville 19-08-2026 - 06:49 20°C / 85.5%
h4-hermonville 19-08-2026 - 06:48 21.5°C / 77.5%
h2-hermonville 19-08-2026 - 06:43 20.2°C / 85%
h1-hermonville 19-08-2026 - 06:43 21°C / 81%
h3-hermonville 19-08-2026 - 06:39 20°C / 85%
h4-hermonville 19-08-2026 - 06:38 21.5°C / 77%
h2-hermonville 19-08-2026 - 06:33 20.3°C / 84.5%
h1-hermonville 19-08-2026 - 06:33 21.1°C / 81%
h3-hermonville 19-08-2026 - 06:29 20.1°C / 84.5%
h4-hermonville 19-08-2026 - 06:28 21.5°C / 77%
h2-hermonville 19-08-2026 - 06:23 20.3°C / 84%
h1-hermonville 19-08-2026 - 06:23 21.1°C / 81%
h3-hermonville 19-08-2026 - 06:19 20.4°C / 83.5%
h4-hermonville 19-08-2026 - 06:18 21.6°C / 76.5%
h2-hermonville 19-08-2026 - 06:13 20.5°C / 84%
h1-hermonville 19-08-2026 - 06:13 21.1°C / 80.5%
h3-hermonville 19-08-2026 - 06:09 21°C / 81%
h4-hermonville 19-08-2026 - 06:08 21.6°C / 76.5%
h2-hermonville 19-08-2026 - 06:03 20.5°C / 83.5%
h1-hermonville 19-08-2026 - 06:03 21°C / 80%
h3-hermonville 19-08-2026 - 05:59 21°C / 81.5%
h4-hermonville 19-08-2026 - 05:58 21.7°C / 76%
h2-hermonville 19-08-2026 - 05:53 20.5°C / 84%
h1-hermonville 19-08-2026 - 05:53 21.1°C / 80%
h3-hermonville 19-08-2026 - 05:49 20.7°C / 82.5%
h4-hermonville 19-08-2026 - 05:48 21.6°C / 76.5%
h2-hermonville 19-08-2026 - 05:43 20.3°C / 84%
h1-hermonville 19-08-2026 - 05:43 21.1°C / 80%
h3-hermonville 19-08-2026 - 05:39 20.5°C / 83.5%
h4-hermonville 19-08-2026 - 05:38 21.6°C / 76.5%
h2-hermonville 19-08-2026 - 05:33 20.4°C / 84%
h1-hermonville 19-08-2026 - 05:33 21°C / 81%
h3-hermonville 19-08-2026 - 05:29 20.2°C / 84.5%
h4-hermonville 19-08-2026 - 05:28 21.6°C / 76.5%
h2-hermonville 19-08-2026 - 05:23 20.4°C / 84.5%
h1-hermonville 19-08-2026 - 05:23 20.9°C / 81%
h3-hermonville 19-08-2026 - 05:19 20.1°C / 85%
h4-hermonville 19-08-2026 - 05:18 21.5°C / 77%
h2-hermonville 19-08-2026 - 05:13 20.3°C / 84.5%
h1-hermonville 19-08-2026 - 05:13 20.9°C / 81.5%
h3-hermonville 19-08-2026 - 05:09 20°C / 85.5%
h4-hermonville 19-08-2026 - 05:08 21.5°C / 77%
h2-hermonville 19-08-2026 - 05:03 20.3°C / 85%
h1-hermonville 19-08-2026 - 05:03 20.9°C / 81.5%
h4-hermonville 19-08-2026 - 04:58 21.5°C / 77%
h2-hermonville 19-08-2026 - 04:53 20.2°C / 85.5%
h1-hermonville 19-08-2026 - 04:53 21°C / 81.5%
h3-hermonville 19-08-2026 - 04:49 20.1°C / 85.5%
h4-hermonville 19-08-2026 - 04:48 21.6°C / 76.5%
h2-hermonville 19-08-2026 - 04:43 20.2°C / 85%
h1-hermonville 19-08-2026 - 04:43 21°C / 81%
h3-hermonville 19-08-2026 - 04:39 20.2°C / 84.5%
h4-hermonville 19-08-2026 - 04:38 21.5°C / 76.5%
h2-hermonville 19-08-2026 - 04:33 20.4°C / 85%
h1-hermonville 19-08-2026 - 04:33 20.9°C / 81.5%
h3-hermonville 19-08-2026 - 04:29 20.4°C / 84.5%
h4-hermonville 19-08-2026 - 04:28 21.6°C / 77%
h2-hermonville 19-08-2026 - 04:23 20.1°C / 85.5%
h1-hermonville 19-08-2026 - 04:23 20.9°C / 81.5%
h3-hermonville 19-08-2026 - 04:19 19.8°C / 86%
h4-hermonville 19-08-2026 - 04:18 21.5°C / 76.5%
h2-hermonville 19-08-2026 - 04:13 20.2°C / 84.5%
h1-hermonville 19-08-2026 - 04:13 21°C / 81%
h3-hermonville 19-08-2026 - 04:09 19.9°C / 85.5%
h4-hermonville 19-08-2026 - 04:08 21.6°C / 76.5%
h2-hermonville 19-08-2026 - 04:03 20.2°C / 84.5%
h1-hermonville 19-08-2026 - 04:03 20.9°C / 81%
h3-hermonville 19-08-2026 - 03:59 20°C / 85.5%
h4-hermonville 19-08-2026 - 03:58 21.7°C / 76%
h2-hermonville 19-08-2026 - 03:53 20.3°C / 84%
h1-hermonville 19-08-2026 - 03:53 21°C / 80.5%
h3-hermonville 19-08-2026 - 03:49 20.1°C / 84.5%
h4-hermonville 19-08-2026 - 03:48 21.7°C / 75.5%
h2-hermonville 19-08-2026 - 03:43 20.2°C / 84.5%
h1-hermonville 19-08-2026 - 03:43 21°C / 80.5%
h3-hermonville 19-08-2026 - 03:39 20°C / 85%
h4-hermonville 19-08-2026 - 03:38 21.7°C / 76%
h2-hermonville 19-08-2026 - 03:33 20.3°C / 84%
h1-hermonville 19-08-2026 - 03:33 20.9°C / 80.5%
h3-hermonville 19-08-2026 - 03:29 20.1°C / 85%
h4-hermonville 19-08-2026 - 03:28 21.7°C / 75.5%
h2-hermonville 19-08-2026 - 03:23 20.3°C / 84%
h1-hermonville 19-08-2026 - 03:23 20.9°C / 81%
h3-hermonville 19-08-2026 - 03:19 19.9°C / 85%
h4-hermonville 19-08-2026 - 03:18 21.7°C / 75.5%
h2-hermonville 19-08-2026 - 03:13 20.2°C / 84%
h1-hermonville 19-08-2026 - 03:13 20.8°C / 81%
h3-hermonville 19-08-2026 - 03:09 19.9°C / 85.5%
h4-hermonville 19-08-2026 - 03:08 21.6°C / 76%
h2-hermonville 19-08-2026 - 03:03 20.2°C / 84%
h1-hermonville 19-08-2026 - 03:03 20.9°C / 81%
h3-hermonville 19-08-2026 - 02:59 20°C / 85%
h4-hermonville 19-08-2026 - 02:58 21.5°C / 76%
h2-hermonville 19-08-2026 - 02:53 20.2°C / 84.5%
h1-hermonville 19-08-2026 - 02:53 20.9°C / 81%
h3-hermonville 19-08-2026 - 02:49 20°C / 85%
h4-hermonville 19-08-2026 - 02:48 21.5°C / 75.5%
h2-hermonville 19-08-2026 - 02:43 20.1°C / 85%
h1-hermonville 19-08-2026 - 02:43 20.7°C / 81.5%
h3-hermonville 19-08-2026 - 02:39 19.8°C / 85.5%
h4-hermonville 19-08-2026 - 02:38 21.6°C / 76.5%
h2-hermonville 19-08-2026 - 02:33 20°C / 85%
h1-hermonville 19-08-2026 - 02:33 20.6°C / 82%
h3-hermonville 19-08-2026 - 02:29 19.6°C / 85.5%
h4-hermonville 19-08-2026 - 02:28 21.4°C / 76.5%
h2-hermonville 19-08-2026 - 02:23 20°C / 85%
h3-hermonville 19-08-2026 - 02:19 19.7°C / 85%
h4-hermonville 19-08-2026 - 02:18 21.6°C / 76%
h2-hermonville 19-08-2026 - 02:13 20°C / 84%
h1-hermonville 19-08-2026 - 02:13 20.8°C / 80.5%
h3-hermonville 19-08-2026 - 02:09 19.8°C / 84%
h4-hermonville 19-08-2026 - 02:08 21.7°C / 75%
h2-hermonville 19-08-2026 - 02:03 20.3°C / 82.5%
h3-hermonville 19-08-2026 - 01:59 20.3°C / 82%
h4-hermonville 19-08-2026 - 01:58 22°C / 74%
h2-hermonville 19-08-2026 - 01:53 20.6°C / 81.5%
h1-hermonville 19-08-2026 - 01:53 21.3°C / 78.5%
h3-hermonville 19-08-2026 - 01:49 20.8°C / 80.5%
h4-hermonville 19-08-2026 - 01:48 22.1°C / 73.5%
h2-hermonville 19-08-2026 - 01:43 20.8°C / 81.5%
h1-hermonville 19-08-2026 - 01:43 21.5°C / 78%
h3-hermonville 19-08-2026 - 01:39 21°C / 79.5%
h4-hermonville 19-08-2026 - 01:38 22.1°C / 74%
h2-hermonville 19-08-2026 - 01:33 20.9°C / 81%
h1-hermonville 19-08-2026 - 01:33 21.6°C / 78%
h3-hermonville 19-08-2026 - 01:29 21.2°C / 79%
h4-hermonville 19-08-2026 - 01:28 22°C / 74%
h2-hermonville 19-08-2026 - 01:23 21°C / 81%
h3-hermonville 19-08-2026 - 01:19 21.1°C / 79%
h4-hermonville 19-08-2026 - 01:18 21.9°C / 74%
h2-hermonville 19-08-2026 - 01:13 20.7°C / 81%
h1-hermonville 19-08-2026 - 01:13 21.5°C / 78%
h3-hermonville 19-08-2026 - 01:09 21.3°C / 78%
h4-hermonville 19-08-2026 - 01:08 22°C / 73.5%
h2-hermonville 19-08-2026 - 01:03 20.7°C / 81%
h1-hermonville 19-08-2026 - 01:03 21.5°C / 77.5%
h3-hermonville 19-08-2026 - 00:59 21.1°C / 78%
h4-hermonville 19-08-2026 - 00:58 22°C / 72.5%
h2-hermonville 19-08-2026 - 00:53 20.8°C / 80.5%
h1-hermonville 19-08-2026 - 00:53 21.5°C / 77.5%
h3-hermonville 19-08-2026 - 00:49 21°C / 79%
h4-hermonville 19-08-2026 - 00:48 22.1°C / 72.5%
h2-hermonville 19-08-2026 - 00:43 20.8°C / 80%
h1-hermonville 19-08-2026 - 00:43 21.5°C / 77.5%
h3-hermonville 19-08-2026 - 00:39 21.4°C / 77.5%
h4-hermonville 19-08-2026 - 00:38 22.2°C / 72.5%
h2-hermonville 19-08-2026 - 00:34 21.1°C / 79%
h1-hermonville 19-08-2026 - 00:33 21.4°C / 77.5%
h3-hermonville 19-08-2026 - 00:29 21.7°C / 76%
h4-hermonville 19-08-2026 - 00:28 22.1°C / 73%
h2-hermonville 19-08-2026 - 00:23 21.3°C / 79%
h1-hermonville 19-08-2026 - 00:23 21.5°C / 77.5%
h3-hermonville 19-08-2026 - 00:19 21.8°C / 76.5%
h4-hermonville 19-08-2026 - 00:18 22.3°C / 72.5%
h2-hermonville 19-08-2026 - 00:13 21.2°C / 78.5%
h1-hermonville 19-08-2026 - 00:13 21.7°C / 76.5%
h3-hermonville 19-08-2026 - 00:09 21.6°C / 76.5%
h4-hermonville 19-08-2026 - 00:08 22.2°C / 72.5%
h2-hermonville 19-08-2026 - 00:03 21.4°C / 78.5%
h1-hermonville 19-08-2026 - 00:03 21.7°C / 76.5%